sensor_id;sensor_type;location;lat;lon;timestamp;pressure;altitude;pressure_sealevel;temperature;humidity
47430;BME280;33181;49.246;7.372;2022-11-28T00:01:27;98618.91;;;6.33;85.99
47430;BME280;33181;49.246;7.372;2022-11-28T00:03:53;98628.44;;;6.34;85.96
47430;BME280;33181;49.246;7.372;2022-11-28T00:06:19;98617.38;;;6.31;86.25
47430;BME280;33181;49.246;7.372;2022-11-28T00:08:45;98620.50;;;6.36;86.00
47430;BME280;33181;49.246;7.372;2022-11-28T00:11:13;98610.59;;;6.41;85.59
47430;BME280;33181;49.246;7.372;2022-11-28T00:13:41;98609.03;;;6.38;85.59
47430;BME280;33181;49.246;7.372;2022-11-28T00:16:08;98598.16;;;6.32;86.09
47430;BME280;33181;49.246;7.372;2022-11-28T00:18:37;98602.56;;;6.31;86.44
47430;BME280;33181;49.246;7.372;2022-11-28T00:21:10;98599.63;;;6.36;86.28
47430;BME280;33181;49.246;7.372;2022-11-28T00:23:36;98586.38;;;6.39;85.92
47430;BME280;33181;49.246;7.372;2022-11-28T00:26:05;98588.56;;;6.32;86.11
47430;BME280;33181;49.246;7.372;2022-11-28T00:28:31;98579.28;;;6.28;86.41
47430;BME280;33181;49.246;7.372;2022-11-28T00:30:57;98576.47;;;6.31;86.60
47430;BME280;33181;49.246;7.372;2022-11-28T00:33:23;98580.00;;;6.30;86.39
47430;BME280;33181;49.246;7.372;2022-11-28T00:35:49;98586.06;;;6.31;86.38
47430;BME280;33181;49.246;7.372;2022-11-28T00:38:15;98581.69;;;6.31;86.36
47430;BME280;33181;49.246;7.372;2022-11-28T00:40:41;98586.06;;;6.31;86.45
47430;BME280;33181;49.246;7.372;2022-11-28T00:43:07;98580.09;;;6.29;86.33
47430;BME280;33181;49.246;7.372;2022-11-28T00:45:32;98571.25;;;6.31;86.20
47430;BME280;33181;49.246;7.372;2022-11-28T00:47:58;98571.13;;;6.33;86.12
47430;BME280;33181;49.246;7.372;2022-11-28T00:50:24;98570.09;;;6.35;86.24
47430;BME280;33181;49.246;7.372;2022-11-28T00:52:50;98570.22;;;6.34;86.21
47430;BME280;33181;49.246;7.372;2022-11-28T00:55:16;98571.75;;;6.36;86.06
47430;BME280;33181;49.246;7.372;2022-11-28T00:57:41;98564.16;;;6.33;85.14
47430;BME280;33181;49.246;7.372;2022-11-28T01:00:08;98557.78;;;6.24;85.31
47430;BME280;33181;49.246;7.372;2022-11-28T01:02:34;98549.97;;;6.24;85.45
47430;BME280;33181;49.246;7.372;2022-11-28T01:05:00;98543.25;;;6.20;85.65
47430;BME280;33181;49.246;7.372;2022-11-28T01:07:26;98541.47;;;6.21;85.45
47430;BME280;33181;49.246;7.372;2022-11-28T01:09:55;98540.13;;;6.15;85.96
47430;BME280;33181;49.246;7.372;2022-11-28T01:12:20;98539.06;;;6.18;85.91
47430;BME280;33181;49.246;7.372;2022-11-28T01:14:46;98534.91;;;6.15;85.78
47430;BME280;33181;49.246;7.372;2022-11-28T01:17:12;98527.50;;;6.09;85.87
47430;BME280;33181;49.246;7.372;2022-11-28T01:19:38;98532.59;;;6.11;85.72
47430;BME280;33181;49.246;7.372;2022-11-28T01:22:03;98540.03;;;6.17;86.17
47430;BME280;33181;49.246;7.372;2022-11-28T01:24:32;98532.31;;;6.15;85.44
47430;BME280;33181;49.246;7.372;2022-11-28T01:26:58;98535.63;;;6.17;85.76
47430;BME280;33181;49.246;7.372;2022-11-28T01:29:24;98531.03;;;6.21;85.33
47430;BME280;33181;49.246;7.372;2022-11-28T01:31:49;98530.00;;;6.23;85.40
47430;BME280;33181;49.246;7.372;2022-11-28T01:34:15;98528.25;;;6.24;84.99
47430;BME280;33181;49.246;7.372;2022-11-28T01:36:42;98529.94;;;6.25;85.25
47430;BME280;33181;49.246;7.372;2022-11-28T01:39:08;98528.97;;;6.26;85.25
47430;BME280;33181;49.246;7.372;2022-11-28T01:41:35;98525.44;;;6.27;85.12
47430;BME280;33181;49.246;7.372;2022-11-28T01:46:39;98532.75;;;6.22;84.82
47430;BME280;33181;49.246;7.372;2022-11-28T01:52:04;98521.25;;;6.12;85.64
47430;BME280;33181;49.246;7.372;2022-11-28T01:54:33;98513.44;;;6.12;85.63
47430;BME280;33181;49.246;7.372;2022-11-28T01:57:17;98516.88;;;6.12;85.96
47430;BME280;33181;49.246;7.372;2022-11-28T01:59:52;98515.09;;;6.13;85.64
47430;BME280;33181;49.246;7.372;2022-11-28T02:03:09;98513.44;;;6.12;85.90
47430;BME280;33181;49.246;7.372;2022-11-28T02:05:36;98511.75;;;6.11;85.58
47430;BME280;33181;49.246;7.372;2022-11-28T02:08:03;98505.63;;;6.12;85.89
47430;BME280;33181;49.246;7.372;2022-11-28T02:14:26;98493.06;;;6.04;85.62
47430;BME280;33181;49.246;7.372;2022-11-28T02:20:18;98495.72;;;5.90;86.22
47430;BME280;33181;49.246;7.372;2022-11-28T02:43:10;98475.75;;;5.76;87.23
47430;BME280;33181;49.246;7.372;2022-11-28T02:48:52;98471.91;;;5.69;87.09
47430;BME280;33181;49.246;7.372;2022-11-28T02:53:48;98464.09;;;5.69;87.57
47430;BME280;33181;49.246;7.372;2022-11-28T02:56:16;98461.28;;;5.72;87.32
47430;BME280;33181;49.246;7.372;2022-11-28T02:58:41;98468.34;;;5.70;86.99
47430;BME280;33181;49.246;7.372;2022-11-28T03:01:20;98466.53;;;5.57;87.47
47430;BME280;33181;49.246;7.372;2022-11-28T03:04:15;98471.94;;;5.54;87.97
47430;BME280;33181;49.246;7.372;2022-11-28T03:15:11;98467.53;;;5.42;88.57
47430;BME280;33181;49.246;7.372;2022-11-28T03:18:10;98463.97;;;5.30;88.73
47430;BME280;33181;49.246;7.372;2022-11-28T03:20:59;98466.56;;;5.30;89.03
47430;BME280;33181;49.246;7.372;2022-11-28T03:29:14;98451.75;;;5.31;88.99
47430;BME280;33181;49.246;7.372;2022-11-28T03:32:10;98468.03;;;5.34;89.18
47430;BME280;33181;49.246;7.372;2022-11-28T03:34:39;98462.63;;;5.38;89.29
47430;BME280;33181;49.246;7.372;2022-11-28T03:37:20;98465.97;;;5.40;88.97
47430;BME280;33181;49.246;7.372;2022-11-28T03:39:56;98465.16;;;5.39;89.24
47430;BME280;33181;49.246;7.372;2022-11-28T03:42:26;98461.41;;;5.43;89.21
47430;BME280;33181;49.246;7.372;2022-11-28T03:47:42;98464.19;;;5.40;88.40
47430;BME280;33181;49.246;7.372;2022-11-28T03:50:46;98452.41;;;5.34;89.12
47430;BME280;33181;49.246;7.372;2022-11-28T03:53:57;98456.66;;;5.35;89.38
47430;BME280;33181;49.246;7.372;2022-11-28T03:59:12;98455.31;;;5.30;89.21
47430;BME280;33181;49.246;7.372;2022-11-28T04:02:05;98456.13;;;5.30;89.14
47430;BME280;33181;49.246;7.372;2022-11-28T04:04:50;98439.72;;;5.16;89.69
47430;BME280;33181;49.246;7.372;2022-11-28T04:07:44;98441.94;;;5.22;89.61
47430;BME280;33181;49.246;7.372;2022-11-28T04:13:24;98442.03;;;5.20;89.21
47430;BME280;33181;49.246;7.372;2022-11-28T04:16:20;98435.34;;;5.16;89.12
47430;BME280;33181;49.246;7.372;2022-11-28T04:18:54;98430.97;;;5.17;89.18
47430;BME280;33181;49.246;7.372;2022-11-28T04:21:43;98437.63;;;5.08;89.22
47430;BME280;33181;49.246;7.372;2022-11-28T04:24:17;98432.31;;;5.09;89.21
47430;BME280;33181;49.246;7.372;2022-11-28T04:26:58;98424.28;;;5.13;89.17
47430;BME280;33181;49.246;7.372;2022-11-28T04:29:30;98423.47;;;5.12;88.72
47430;BME280;33181;49.246;7.372;2022-11-28T04:31:59;98423.28;;;5.15;88.93
47430;BME280;33181;49.246;7.372;2022-11-28T04:34:27;98420.94;;;5.10;89.49
47430;BME280;33181;49.246;7.372;2022-11-28T04:36:55;98424.59;;;5.08;89.56
47430;BME280;33181;49.246;7.372;2022-11-28T04:39:25;98428.88;;;5.09;89.34
47430;BME280;33181;49.246;7.372;2022-11-28T04:42:07;98424.50;;;5.09;89.27
47430;BME280;33181;49.246;7.372;2022-11-28T04:45:27;98426.06;;;5.12;89.25
47430;BME280;33181;49.246;7.372;2022-11-28T04:47:28;98427.84;;;5.11;89.25
47430;BME280;33181;49.246;7.372;2022-11-28T04:49:54;98420.75;;;5.14;88.96
47430;BME280;33181;49.246;7.372;2022-11-28T04:52:40;98424.41;;;5.11;89.65
47430;BME280;33181;49.246;7.372;2022-11-28T04:55:39;98420.22;;;5.08;89.95
47430;BME280;33181;49.246;7.372;2022-11-28T04:58:25;98413.25;;;5.09;89.59
47430;BME280;33181;49.246;7.372;2022-11-28T05:00:54;98407.03;;;5.11;89.78
47430;BME280;33181;49.246;7.372;2022-11-28T05:03:21;98417.03;;;5.18;89.57
47430;BME280;33181;49.246;7.372;2022-11-28T05:05:50;98421.31;;;5.19;89.65
47430;BME280;33181;49.246;7.372;2022-11-28T05:08:17;98420.91;;;5.25;89.57
47430;BME280;33181;49.246;7.372;2022-11-28T05:10:44;98415.59;;;5.26;89.50
47430;BME280;33181;49.246;7.372;2022-11-28T05:13:10;98413.22;;;5.23;89.59
47430;BME280;33181;49.246;7.372;2022-11-28T05:15:36;98412.03;;;5.15;90.41
47430;BME280;33181;49.246;7.372;2022-11-28T05:18:02;98410.13;;;5.17;90.37
47430;BME280;33181;49.246;7.372;2022-11-28T05:20:28;98407.91;;;5.25;90.47
47430;BME280;33181;49.246;7.372;2022-11-28T05:22:54;98406.75;;;5.29;90.43
47430;BME280;33181;49.246;7.372;2022-11-28T05:25:19;98410.66;;;5.36;90.19
47430;BME280;33181;49.246;7.372;2022-11-28T05:27:45;98411.16;;;5.41;90.02
47430;BME280;33181;49.246;7.372;2022-11-28T05:30:12;98417.75;;;5.47;90.21
47430;BME280;33181;49.246;7.372;2022-11-28T05:32:38;98414.94;;;5.50;90.00
47430;BME280;33181;49.246;7.372;2022-11-28T05:35:04;98412.63;;;5.45;90.25
47430;BME280;33181;49.246;7.372;2022-11-28T05:37:30;98408.91;;;5.49;90.07
47430;BME280;33181;49.246;7.372;2022-11-28T05:39:56;98404.41;;;5.51;90.00
47430;BME280;33181;49.246;7.372;2022-11-28T05:42:22;98404.97;;;5.56;90.21
47430;BME280;33181;49.246;7.372;2022-11-28T05:44:48;98407.56;;;5.56;89.85
47430;BME280;33181;49.246;7.372;2022-11-28T05:47:14;98413.59;;;5.57;89.82
47430;BME280;33181;49.246;7.372;2022-11-28T05:49:45;98412.88;;;5.55;90.40
47430;BME280;33181;49.246;7.372;2022-11-28T05:52:11;98405.59;;;5.60;90.36
47430;BME280;33181;49.246;7.372;2022-11-28T05:54:36;98414.16;;;5.62;90.27
47430;BME280;33181;49.246;7.372;2022-11-28T05:57:02;98412.25;;;5.64;90.06
47430;BME280;33181;49.246;7.372;2022-11-28T05:59:30;98402.78;;;5.63;89.77
47430;BME280;33181;49.246;7.372;2022-11-28T06:01:56;98410.50;;;5.65;90.09
47430;BME280;33181;49.246;7.372;2022-11-28T06:04:22;98415.59;;;5.66;90.15
47430;BME280;33181;49.246;7.372;2022-11-28T06:06:50;98406.97;;;5.66;89.81
47430;BME280;33181;49.246;7.372;2022-11-28T06:09:16;98409.16;;;5.72;90.17
47430;BME280;33181;49.246;7.372;2022-11-28T06:11:42;98411.56;;;5.75;89.45
47430;BME280;33181;49.246;7.372;2022-11-28T06:14:09;98406.25;;;5.76;90.01
47430;BME280;33181;49.246;7.372;2022-11-28T06:16:35;98408.97;;;5.75;89.71
47430;BME280;33181;49.246;7.372;2022-11-28T06:19:05;98403.00;;;5.73;89.72
47430;BME280;33181;49.246;7.372;2022-11-28T06:21:31;98411.22;;;5.67;89.95
47430;BME280;33181;49.246;7.372;2022-11-28T06:23:58;98418.00;;;5.69;89.91
47430;BME280;33181;49.246;7.372;2022-11-28T06:26:26;98420.41;;;5.72;89.75
47430;BME280;33181;49.246;7.372;2022-11-28T06:28:52;98418.97;;;5.68;89.60
47430;BME280;33181;49.246;7.372;2022-11-28T06:31:24;98418.34;;;5.65;89.60
47430;BME280;33181;49.246;7.372;2022-11-28T06:33:50;98420.72;;;5.68;89.65
47430;BME280;33181;49.246;7.372;2022-11-28T06:36:18;98414.78;;;5.66;89.53
47430;BME280;33181;49.246;7.372;2022-11-28T06:38:44;98422.59;;;5.66;89.39
47430;BME280;33181;49.246;7.372;2022-11-28T06:41:15;98431.97;;;5.68;89.54
47430;BME280;33181;49.246;7.372;2022-11-28T06:43:41;98427.69;;;5.67;89.60
47430;BME280;33181;49.246;7.372;2022-11-28T06:46:12;98434.69;;;5.67;89.91
47430;BME280;33181;49.246;7.372;2022-11-28T06:48:38;98437.81;;;5.72;89.76
47430;BME280;33181;49.246;7.372;2022-11-28T06:51:05;98432.41;;;5.75;89.56
47430;BME280;33181;49.246;7.372;2022-11-28T06:53:32;98430.56;;;5.77;89.42
47430;BME280;33181;49.246;7.372;2022-11-28T06:56:08;98427.00;;;5.78;89.53
47430;BME280;33181;49.246;7.372;2022-11-28T06:58:35;98431.25;;;5.79;89.38
47430;BME280;33181;49.246;7.372;2022-11-28T07:03:35;98436.28;;;5.82;89.41
47430;BME280;33181;49.246;7.372;2022-11-28T07:06:03;98427.50;;;5.83;89.66
47430;BME280;33181;49.246;7.372;2022-11-28T07:08:30;98427.44;;;5.85;89.42
47430;BME280;33181;49.246;7.372;2022-11-28T07:10:56;98432.53;;;5.86;89.52
47430;BME280;33181;49.246;7.372;2022-11-28T07:13:23;98434.22;;;5.87;89.59
47430;BME280;33181;49.246;7.372;2022-11-28T07:15:50;98441.81;;;5.90;89.50
47430;BME280;33181;49.246;7.372;2022-11-28T07:18:16;98434.72;;;5.92;89.43
47430;BME280;33181;49.246;7.372;2022-11-28T07:20:42;98439.03;;;5.93;89.43
47430;BME280;33181;49.246;7.372;2022-11-28T07:23:08;98439.94;;;5.92;89.56
47430;BME280;33181;49.246;7.372;2022-11-28T07:25:34;98433.84;;;5.93;89.65
47430;BME280;33181;49.246;7.372;2022-11-28T07:27:59;98440.03;;;5.91;89.47
47430;BME280;33181;49.246;7.372;2022-11-28T07:30:25;98437.44;;;5.91;89.51
47430;BME280;33181;49.246;7.372;2022-11-28T07:32:51;98442.47;;;5.94;89.97
47430;BME280;33181;49.246;7.372;2022-11-28T07:35:17;98447.28;;;6.00;90.25
47430;BME280;33181;49.246;7.372;2022-11-28T07:37:42;98440.09;;;6.03;89.99
47430;BME280;33181;49.246;7.372;2022-11-28T07:40:08;98440.84;;;6.06;89.74
47430;BME280;33181;49.246;7.372;2022-11-28T07:42:34;98448.34;;;6.10;90.11
47430;BME280;33181;49.246;7.372;2022-11-28T07:45:01;98450.66;;;6.15;90.32
47430;BME280;33181;49.246;7.372;2022-11-28T07:47:27;98455.75;;;6.16;90.12
47430;BME280;33181;49.246;7.372;2022-11-28T07:49:52;98449.50;;;6.19;90.02
47430;BME280;33181;49.246;7.372;2022-11-28T07:52:18;98450.75;;;6.13;90.08
47430;BME280;33181;49.246;7.372;2022-11-28T07:54:44;98447.94;;;6.16;89.96
47430;BME280;33181;49.246;7.372;2022-11-28T07:57:10;98445.59;;;5.99;90.54
47430;BME280;33181;49.246;7.372;2022-11-28T07:59:35;98449.91;;;6.00;91.05
47430;BME280;33181;49.246;7.372;2022-11-28T08:02:01;98455.81;;;6.02;91.47
47430;BME280;33181;49.246;7.372;2022-11-28T08:04:27;98453.22;;;6.02;91.25
47430;BME280;33181;49.246;7.372;2022-11-28T08:06:53;98458.88;;;6.09;91.54
47430;BME280;33181;49.246;7.372;2022-11-28T08:09:19;98454.19;;;6.14;91.56
47430;BME280;33181;49.246;7.372;2022-11-28T08:11:45;98461.59;;;6.20;91.28
47430;BME280;33181;49.246;7.372;2022-11-28T08:14:11;98453.56;;;6.23;91.47
47430;BME280;33181;49.246;7.372;2022-11-28T08:16:38;98448.25;;;6.24;91.52
47430;BME280;33181;49.246;7.372;2022-11-28T08:19:09;98454.91;;;6.29;91.75
47430;BME280;33181;49.246;7.372;2022-11-28T08:21:36;98457.94;;;6.35;91.91
47430;BME280;33181;49.246;7.372;2022-11-28T08:24:03;98457.75;;;6.38;92.25
47430;BME280;33181;49.246;7.372;2022-11-28T08:26:31;98462.00;;;6.39;92.07
47430;BME280;33181;49.246;7.372;2022-11-28T08:28:58;98459.41;;;6.39;91.97
47430;BME280;33181;49.246;7.372;2022-11-28T08:31:33;98463.38;;;6.45;92.60
47430;BME280;33181;49.246;7.372;2022-11-28T08:34:02;98456.91;;;6.50;92.28
47430;BME280;33181;49.246;7.372;2022-11-28T08:36:28;98458.56;;;6.52;92.33
47430;BME280;33181;49.246;7.372;2022-11-28T08:38:54;98453.03;;;6.56;92.58
47430;BME280;33181;49.246;7.372;2022-11-28T08:41:22;98451.34;;;6.42;93.55
47430;BME280;33181;49.246;7.372;2022-11-28T08:43:49;98454.50;;;6.47;93.57
47430;BME280;33181;49.246;7.372;2022-11-28T08:46:18;98449.91;;;6.51;94.46
47430;BME280;33181;49.246;7.372;2022-11-28T08:48:46;98450.31;;;6.58;94.26
47430;BME280;33181;49.246;7.372;2022-11-28T08:51:15;98448.22;;;6.63;94.29
47430;BME280;33181;49.246;7.372;2022-11-28T08:53:42;98457.50;;;6.67;94.03
47430;BME280;33181;49.246;7.372;2022-11-28T08:56:09;98450.19;;;6.72;94.26
47430;BME280;33181;49.246;7.372;2022-11-28T08:58:35;98448.94;;;6.65;95.01
47430;BME280;33181;49.246;7.372;2022-11-28T09:01:01;98455.00;;;6.65;95.48
47430;BME280;33181;49.246;7.372;2022-11-28T09:03:26;98451.84;;;6.73;95.92
47430;BME280;33181;49.246;7.372;2022-11-28T09:05:52;98449.78;;;6.78;96.12
47430;BME280;33181;49.246;7.372;2022-11-28T09:08:20;98455.63;;;6.82;95.81
47430;BME280;33181;49.246;7.372;2022-11-28T09:10:46;98451.63;;;6.89;96.01
47430;BME280;33181;49.246;7.372;2022-11-28T09:13:13;98447.75;;;6.94;96.27
47430;BME280;33181;49.246;7.372;2022-11-28T09:15:42;98448.25;;;7.00;96.55
47430;BME280;33181;49.246;7.372;2022-11-28T09:18:10;98445.94;;;7.08;95.95
47430;BME280;33181;49.246;7.372;2022-11-28T09:20:36;98447.38;;;7.12;96.56
47430;BME280;33181;49.246;7.372;2022-11-28T09:23:02;98445.28;;;7.17;97.44
47430;BME280;33181;49.246;7.372;2022-11-28T09:25:28;98446.84;;;7.19;98.63
47430;BME280;33181;49.246;7.372;2022-11-28T09:27:53;98444.63;;;7.26;99.17
47430;BME280;33181;49.246;7.372;2022-11-28T09:30:19;98453.44;;;7.36;99.88
47430;BME280;33181;49.246;7.372;2022-11-28T09:32:49;98451.13;;;7.45;99.83
47430;BME280;33181;49.246;7.372;2022-11-28T09:35:16;98448.69;;;7.54;100.00
47430;BME280;33181;49.246;7.372;2022-11-28T09:37:42;98448.72;;;7.65;100.00
47430;BME280;33181;49.246;7.372;2022-11-28T09:40:39;98446.16;;;7.77;100.00
47430;BME280;33181;49.246;7.372;2022-11-28T09:43:22;98445.47;;;7.86;100.00
47430;BME280;33181;49.246;7.372;2022-11-28T09:45:52;98446.56;;;7.95;100.00
47430;BME280;33181;49.246;7.372;2022-11-28T09:48:49;98437.53;;;8.10;100.00
47430;BME280;33181;49.246;7.372;2022-11-28T09:51:41;98437.81;;;8.18;100.00
47430;BME280;33181;49.246;7.372;2022-11-28T09:54:55;98433.06;;;8.34;100.00
47430;BME280;33181;49.246;7.372;2022-11-28T09:57:35;98429.78;;;8.44;100.00
47430;BME280;33181;49.246;7.372;2022-11-28T10:00:02;98430.25;;;8.60;100.00
47430;BME280;33181;49.246;7.372;2022-11-28T10:02:46;98431.72;;;8.64;100.00
47430;BME280;33181;49.246;7.372;2022-11-28T10:13:59;98433.19;;;9.00;100.00
47430;BME280;33181;49.246;7.372;2022-11-28T10:19:39;98435.69;;;9.13;100.00
47430;BME280;33181;49.246;7.372;2022-11-28T10:22:15;98438.03;;;9.27;100.00
47430;BME280;33181;49.246;7.372;2022-11-28T10:24:49;98441.34;;;9.41;100.00
47430;BME280;33181;49.246;7.372;2022-11-28T10:27:16;98441.31;;;9.52;100.00
47430;BME280;33181;49.246;7.372;2022-11-28T10:32:31;98433.38;;;9.63;99.51
47430;BME280;33181;49.246;7.372;2022-11-28T10:37:45;98426.31;;;9.75;98.70
47430;BME280;33181;49.246;7.372;2022-11-28T10:43:48;98417.34;;;9.78;97.93
47430;BME280;33181;49.246;7.372;2022-11-28T10:46:39;98418.53;;;9.73;96.27
47430;BME280;33181;49.246;7.372;2022-11-28T10:52:17;98417.03;;;9.71;97.01
47430;BME280;33181;49.246;7.372;2022-11-28T11:00:14;98412.41;;;9.63;97.27
47430;BME280;33181;49.246;7.372;2022-11-28T11:02:53;98410.25;;;9.68;97.69
47430;BME280;33181;49.246;7.372;2022-11-28T11:05:34;98415.34;;;9.70;97.08
47430;BME280;33181;49.246;7.372;2022-11-28T11:11:00;98413.31;;;9.73;97.18
47430;BME280;33181;49.246;7.372;2022-11-28T11:13:31;98416.25;;;9.80;96.91
47430;BME280;33181;49.246;7.372;2022-11-28T11:16:06;98405.66;;;9.82;95.99
47430;BME280;33181;49.246;7.372;2022-11-28T11:21:19;98398.91;;;9.89;95.91
47430;BME280;33181;49.246;7.372;2022-11-28T11:23:47;98399.63;;;9.91;96.31
47430;BME280;33181;49.246;7.372;2022-11-28T11:26:25;98391.38;;;9.95;96.10
47430;BME280;33181;49.246;7.372;2022-11-28T11:28:52;98395.41;;;10.00;96.38
47430;BME280;33181;49.246;7.372;2022-11-28T11:31:21;98393.38;;;10.03;96.12
47430;BME280;33181;49.246;7.372;2022-11-28T11:34:00;98404.16;;;10.10;95.06
47430;BME280;33181;49.246;7.372;2022-11-28T11:36:29;98393.78;;;10.08;93.34
47430;BME280;33181;49.246;7.372;2022-11-28T11:41:33;98394.19;;;10.04;93.39
47430;BME280;33181;49.246;7.372;2022-11-28T11:52:23;98389.97;;;10.12;92.74
47430;BME280;33181;49.246;7.372;2022-11-28T11:55:02;98385.03;;;10.19;92.37
47430;BME280;33181;49.246;7.372;2022-11-28T11:57:32;98379.38;;;10.24;92.43
47430;BME280;33181;49.246;7.372;2022-11-28T12:05:26;98377.91;;;10.31;92.07
47430;BME280;33181;49.246;7.372;2022-11-28T12:08:10;98371.72;;;10.32;92.56
47430;BME280;33181;49.246;7.372;2022-11-28T12:10:49;98376.81;;;10.33;92.66
47430;BME280;33181;49.246;7.372;2022-11-28T12:13:22;98382.63;;;10.37;92.15
47430;BME280;33181;49.246;7.372;2022-11-28T12:31:41;98363.00;;;10.10;93.10
47430;BME280;33181;49.246;7.372;2022-11-28T12:37:34;98357.53;;;10.23;92.52
47430;BME280;33181;49.246;7.372;2022-11-28T12:46:40;98356.00;;;10.41;92.03
47430;BME280;33181;49.246;7.372;2022-11-28T12:49:35;98348.13;;;10.41;91.34
47430;BME280;33181;49.246;7.372;2022-11-28T12:57:42;98352.94;;;10.36;90.21
47430;BME280;33181;49.246;7.372;2022-11-28T13:00:29;98350.00;;;10.30;90.11
47430;BME280;33181;49.246;7.372;2022-11-28T13:03:37;98349.03;;;10.31;90.37
47430;BME280;33181;49.246;7.372;2022-11-28T13:06:30;98341.88;;;10.33;90.24
47430;BME280;33181;49.246;7.372;2022-11-28T13:12:17;98347.75;;;10.25;89.79
47430;BME280;33181;49.246;7.372;2022-11-28T13:14:57;98340.97;;;10.23;89.68
47430;BME280;33181;49.246;7.372;2022-11-28T13:17:45;98342.19;;;10.18;90.07
47430;BME280;33181;49.246;7.372;2022-11-28T13:20:44;98336.06;;;10.08;89.70
47430;BME280;33181;49.246;7.372;2022-11-28T13:23:38;98341.56;;;10.05;90.00
47430;BME280;33181;49.246;7.372;2022-11-28T13:29:27;98337.75;;;10.09;90.27
47430;BME280;33181;49.246;7.372;2022-11-28T13:34:45;98339.19;;;10.02;89.72
47430;BME280;33181;49.246;7.372;2022-11-28T13:37:24;98334.72;;;9.93;89.55
47430;BME280;33181;49.246;7.372;2022-11-28T13:40:25;98333.22;;;9.90;89.18
47430;BME280;33181;49.246;7.372;2022-11-28T13:45:42;98333.84;;;9.83;89.93
47430;BME280;33181;49.246;7.372;2022-11-28T13:53:38;98337.75;;;9.67;88.36
47430;BME280;33181;49.246;7.372;2022-11-28T14:01:20;98342.75;;;9.49;89.14
47430;BME280;33181;49.246;7.372;2022-11-28T14:06:39;98341.94;;;9.49;89.60
47430;BME280;33181;49.246;7.372;2022-11-28T14:12:03;98349.34;;;9.44;90.12
47430;BME280;33181;49.246;7.372;2022-11-28T14:15:05;98340.25;;;9.48;90.14
47430;BME280;33181;49.246;7.372;2022-11-28T14:20:58;98359.69;;;9.45;90.17
47430;BME280;33181;49.246;7.372;2022-11-28T14:23:46;98357.44;;;9.41;90.16
47430;BME280;33181;49.246;7.372;2022-11-28T14:26:29;98362.56;;;9.42;90.04
47430;BME280;33181;49.246;7.372;2022-11-28T14:28:57;98360.91;;;9.41;90.09
47430;BME280;33181;49.246;7.372;2022-11-28T14:31:38;98362.22;;;9.36;90.03
47430;BME280;33181;49.246;7.372;2022-11-28T14:34:42;98362.72;;;9.29;90.25
47430;BME280;33181;49.246;7.372;2022-11-28T14:39:51;98366.81;;;9.22;90.89
47430;BME280;33181;49.246;7.372;2022-11-28T14:44:56;98376.38;;;9.12;91.25
47430;BME280;33181;49.246;7.372;2022-11-28T14:47:35;98379.00;;;9.12;91.32
47430;BME280;33181;49.246;7.372;2022-11-28T14:52:37;98389.59;;;9.11;91.90
47430;BME280;33181;49.246;7.372;2022-11-28T14:55:23;98386.88;;;9.01;92.39
47430;BME280;33181;49.246;7.372;2022-11-28T15:00:48;98384.50;;;8.98;93.20
47430;BME280;33181;49.246;7.372;2022-11-28T15:03:50;98384.50;;;8.98;93.38
47430;BME280;33181;49.246;7.372;2022-11-28T15:06:33;98388.09;;;8.97;93.73
47430;BME280;33181;49.246;7.372;2022-11-28T15:12:22;98384.16;;;8.91;93.80
47430;BME280;33181;49.246;7.372;2022-11-28T15:14:54;98388.22;;;8.95;93.94
47430;BME280;33181;49.246;7.372;2022-11-28T15:17:30;98389.41;;;8.91;94.33
47430;BME280;33181;49.246;7.372;2022-11-28T15:20:03;98398.94;;;8.92;94.22
47430;BME280;33181;49.246;7.372;2022-11-28T15:22:37;98393.00;;;8.90;94.56
47430;BME280;33181;49.246;7.372;2022-11-28T15:25:03;98395.47;;;8.92;94.83
47430;BME280;33181;49.246;7.372;2022-11-28T15:27:29;98395.47;;;8.92;94.96
47430;BME280;33181;49.246;7.372;2022-11-28T15:30:19;98388.22;;;8.84;94.79
47430;BME280;33181;49.246;7.372;2022-11-28T15:32:46;98387.28;;;8.85;95.25
47430;BME280;33181;49.246;7.372;2022-11-28T15:35:15;98391.81;;;8.83;95.64
47430;BME280;33181;49.246;7.372;2022-11-28T15:37:54;98398.94;;;8.81;95.67
47430;BME280;33181;49.246;7.372;2022-11-28T15:40:30;98400.03;;;8.78;95.69
47430;BME280;33181;49.246;7.372;2022-11-28T15:42:58;98400.59;;;8.82;95.90
47430;BME280;33181;49.246;7.372;2022-11-28T15:45:32;98403.13;;;8.84;95.93
47430;BME280;33181;49.246;7.372;2022-11-28T15:48:02;98401.44;;;8.82;96.00
47430;BME280;33181;49.246;7.372;2022-11-28T15:50:31;98402.41;;;8.81;96.14
47430;BME280;33181;49.246;7.372;2022-11-28T15:52:59;98404.06;;;8.82;96.09
47430;BME280;33181;49.246;7.372;2022-11-28T15:55:29;98408.59;;;8.80;96.26
47430;BME280;33181;49.246;7.372;2022-11-28T16:00:52;98405.75;;;8.84;96.34
47430;BME280;33181;49.246;7.372;2022-11-28T16:03:25;98409.19;;;8.84;96.27
47430;BME280;33181;49.246;7.372;2022-11-28T16:05:54;98409.06;;;8.86;96.25
47430;BME280;33181;49.246;7.372;2022-11-28T16:08:40;98412.63;;;8.85;96.51
47430;BME280;33181;49.246;7.372;2022-11-28T16:11:15;98407.16;;;8.88;96.42
47430;BME280;33181;49.246;7.372;2022-11-28T16:13:42;98407.03;;;8.89;96.18
47430;BME280;33181;49.246;7.372;2022-11-28T16:16:14;98409.78;;;8.88;96.55
47430;BME280;33181;49.246;7.372;2022-11-28T16:18:59;98408.47;;;8.82;96.58
47430;BME280;33181;49.246;7.372;2022-11-28T16:21:37;98414.44;;;8.84;96.46
47430;BME280;33181;49.246;7.372;2022-11-28T16:24:28;98409.19;;;8.84;96.57
47430;BME280;33181;49.246;7.372;2022-11-28T16:27:01;98413.59;;;8.84;96.66
47430;BME280;33181;49.246;7.372;2022-11-28T16:29:31;98411.81;;;8.84;97.21
47430;BME280;33181;49.246;7.372;2022-11-28T16:32:22;98422.16;;;8.74;98.27
47430;BME280;33181;49.246;7.372;2022-11-28T16:34:54;98415.28;;;8.73;98.47
47430;BME280;33181;49.246;7.372;2022-11-28T16:37:29;98415.88;;;8.77;98.73
47430;BME280;33181;49.246;7.372;2022-11-28T16:40:19;98424.31;;;8.80;98.83
47430;BME280;33181;49.246;7.372;2022-11-28T16:42:54;98417.16;;;8.82;98.28
47430;BME280;33181;49.246;7.372;2022-11-28T16:45:25;98422.88;;;8.88;98.33
47430;BME280;33181;49.246;7.372;2022-11-28T16:48:08;98418.59;;;8.87;98.01
47430;BME280;33181;49.246;7.372;2022-11-28T16:50:35;98416.56;;;8.90;97.96
47430;BME280;33181;49.246;7.372;2022-11-28T16:53:01;98423.59;;;8.90;98.19